sensor_id;sensor_type;location;lat;lon;timestamp;P1;durP1;ratioP1;P2;durP2;ratioP2
7517;SDS011;3800;48.922;9.444;2022-07-23T00:01:13;5.43;;;4.57;;
7517;SDS011;3800;48.922;9.444;2022-07-23T00:03:41;5.30;;;4.80;;
7517;SDS011;3800;48.922;9.444;2022-07-23T00:06:09;6.20;;;4.87;;
7517;SDS011;3800;48.922;9.444;2022-07-23T00:08:38;5.27;;;4.57;;
7517;SDS011;3800;48.922;9.444;2022-07-23T00:11:06;4.90;;;4.40;;
7517;SDS011;3800;48.922;9.444;2022-07-23T00:13:35;4.80;;;4.40;;
7517;SDS011;3800;48.922;9.444;2022-07-23T00:16:03;4.57;;;4.07;;
7517;SDS011;3800;48.922;9.444;2022-07-23T00:18:32;4.77;;;4.20;;
7517;SDS011;3800;48.922;9.444;2022-07-23T00:21:01;5.97;;;3.90;;
7517;SDS011;3800;48.922;9.444;2022-07-23T00:23:29;4.97;;;3.73;;
7517;SDS011;3800;48.922;9.444;2022-07-23T00:25:57;5.37;;;4.07;;
7517;SDS011;3800;48.922;9.444;2022-07-23T00:28:26;4.57;;;4.10;;
7517;SDS011;3800;48.922;9.444;2022-07-23T00:30:54;4.10;;;3.80;;
7517;SDS011;3800;48.922;9.444;2022-07-23T00:33:22;4.80;;;4.40;;
7517;SDS011;3800;48.922;9.444;2022-07-23T00:35:51;5.87;;;4.53;;
7517;SDS011;3800;48.922;9.444;2022-07-23T00:38:19;5.30;;;3.87;;
7517;SDS011;3800;48.922;9.444;2022-07-23T00:40:48;5.70;;;4.40;;
7517;SDS011;3800;48.922;9.444;2022-07-23T00:43:16;5.00;;;4.50;;
7517;SDS011;3800;48.922;9.444;2022-07-23T00:45:44;4.53;;;4.13;;
7517;SDS011;3800;48.922;9.444;2022-07-23T00:48:12;6.13;;;4.50;;
7517;SDS011;3800;48.922;9.444;2022-07-23T00:50:41;4.37;;;3.97;;
7517;SDS011;3800;48.922;9.444;2022-07-23T00:53:09;4.70;;;4.20;;
7517;SDS011;3800;48.922;9.444;2022-07-23T00:55:37;4.90;;;3.97;;
7517;SDS011;3800;48.922;9.444;2022-07-23T00:58:05;4.87;;;3.83;;
7517;SDS011;3800;48.922;9.444;2022-07-23T01:00:34;4.50;;;4.10;;
7517;SDS011;3800;48.922;9.444;2022-07-23T01:03:02;4.00;;;3.57;;
7517;SDS011;3800;48.922;9.444;2022-07-23T01:05:30;4.30;;;3.63;;
7517;SDS011;3800;48.922;9.444;2022-07-23T01:07:58;4.17;;;3.77;;
7517;SDS011;3800;48.922;9.444;2022-07-23T01:10:27;4.93;;;3.60;;
7517;SDS011;3800;48.922;9.444;2022-07-23T01:12:59;3.83;;;3.23;;
7517;SDS011;3800;48.922;9.444;2022-07-23T01:15:28;3.90;;;3.50;;
7517;SDS011;3800;48.922;9.444;2022-07-23T01:17:56;3.90;;;3.50;;
7517;SDS011;3800;48.922;9.444;2022-07-23T01:20:24;4.37;;;3.47;;
7517;SDS011;3800;48.922;9.444;2022-07-23T01:22:53;3.60;;;3.30;;
7517;SDS011;3800;48.922;9.444;2022-07-23T01:25:21;4.63;;;3.60;;
7517;SDS011;3800;48.922;9.444;2022-07-23T01:27:49;4.13;;;3.83;;
7517;SDS011;3800;48.922;9.444;2022-07-23T01:30:17;3.40;;;3.10;;
7517;SDS011;3800;48.922;9.444;2022-07-23T01:32:45;4.87;;;3.50;;
7517;SDS011;3800;48.922;9.444;2022-07-23T01:35:14;4.37;;;3.30;;
7517;SDS011;3800;48.922;9.444;2022-07-23T01:37:42;4.03;;;3.60;;
7517;SDS011;3800;48.922;9.444;2022-07-23T01:40:10;3.80;;;3.40;;
7517;SDS011;3800;48.922;9.444;2022-07-23T01:42:38;3.90;;;3.60;;
7517;SDS011;3800;48.922;9.444;2022-07-23T01:45:07;4.37;;;3.40;;
7517;SDS011;3800;48.922;9.444;2022-07-23T01:47:35;3.83;;;3.50;;
7517;SDS011;3800;48.922;9.444;2022-07-23T01:50:04;3.77;;;3.47;;
7517;SDS011;3800;48.922;9.444;2022-07-23T01:52:33;4.13;;;3.73;;
7517;SDS011;3800;48.922;9.444;2022-07-23T01:55:01;4.00;;;3.70;;
7517;SDS011;3800;48.922;9.444;2022-07-23T01:57:29;3.30;;;3.00;;
7517;SDS011;3800;48.922;9.444;2022-07-23T01:59:57;3.67;;;3.37;;
7517;SDS011;3800;48.922;9.444;2022-07-23T02:02:26;3.57;;;3.27;;
7517;SDS011;3800;48.922;9.444;2022-07-23T02:04:55;4.00;;;3.60;;
7517;SDS011;3800;48.922;9.444;2022-07-23T02:07:23;3.90;;;3.53;;
7517;SDS011;3800;48.922;9.444;2022-07-23T02:09:51;3.87;;;3.57;;
7517;SDS011;3800;48.922;9.444;2022-07-23T02:12:19;3.80;;;3.50;;
7517;SDS011;3800;48.922;9.444;2022-07-23T02:14:48;4.70;;;3.40;;
7517;SDS011;3800;48.922;9.444;2022-07-23T02:17:16;3.70;;;3.40;;
7517;SDS011;3800;48.922;9.444;2022-07-23T02:19:45;4.20;;;3.53;;
7517;SDS011;3800;48.922;9.444;2022-07-23T02:22:13;3.67;;;3.37;;
7517;SDS011;3800;48.922;9.444;2022-07-23T02:24:41;4.17;;;3.50;;
7517;SDS011;3800;48.922;9.444;2022-07-23T02:27:10;4.23;;;3.83;;
7517;SDS011;3800;48.922;9.444;2022-07-23T02:29:38;4.60;;;3.47;;
7517;SDS011;3800;48.922;9.444;2022-07-23T02:32:06;3.90;;;3.60;;
7517;SDS011;3800;48.922;9.444;2022-07-23T02:34:35;4.23;;;3.83;;
7517;SDS011;3800;48.922;9.444;2022-07-23T02:37:04;4.27;;;3.87;;
7517;SDS011;3800;48.922;9.444;2022-07-23T02:39:32;4.83;;;3.80;;
7517;SDS011;3800;48.922;9.444;2022-07-23T02:42:00;4.17;;;3.50;;
7517;SDS011;3800;48.922;9.444;2022-07-23T02:44:29;4.93;;;3.60;;
7517;SDS011;3800;48.922;9.444;2022-07-23T02:46:57;3.90;;;3.50;;
7517;SDS011;3800;48.922;9.444;2022-07-23T02:49:25;4.17;;;3.77;;
7517;SDS011;3800;48.922;9.444;2022-07-23T02:51:53;4.13;;;3.70;;
7517;SDS011;3800;48.922;9.444;2022-07-23T02:54:22;5.93;;;3.57;;
7517;SDS011;3800;48.922;9.444;2022-07-23T02:56:50;4.80;;;3.57;;
7517;SDS011;3800;48.922;9.444;2022-07-23T02:59:19;3.93;;;3.63;;
7517;SDS011;3800;48.922;9.444;2022-07-23T03:01:47;4.10;;;3.70;;
7517;SDS011;3800;48.922;9.444;2022-07-23T03:04:15;7.17;;;3.90;;
7517;SDS011;3800;48.922;9.444;2022-07-23T03:06:44;3.80;;;3.50;;
7517;SDS011;3800;48.922;9.444;2022-07-23T03:09:12;5.07;;;3.73;;
7517;SDS011;3800;48.922;9.444;2022-07-23T03:11:40;4.17;;;3.80;;
7517;SDS011;3800;48.922;9.444;2022-07-23T03:14:09;3.97;;;3.67;;
7517;SDS011;3800;48.922;9.444;2022-07-23T03:16:37;3.87;;;3.50;;
7517;SDS011;3800;48.922;9.444;2022-07-23T03:19:06;4.50;;;4.10;;
7517;SDS011;3800;48.922;9.444;2022-07-23T03:21:34;4.00;;;3.60;;
7517;SDS011;3800;48.922;9.444;2022-07-23T03:24:02;3.77;;;3.47;;
7517;SDS011;3800;48.922;9.444;2022-07-23T03:26:31;4.47;;;4.07;;
7517;SDS011;3800;48.922;9.444;2022-07-23T03:28:59;4.90;;;3.57;;
7517;SDS011;3800;48.922;9.444;2022-07-23T03:31:27;4.20;;;3.90;;
7517;SDS011;3800;48.922;9.444;2022-07-23T03:33:56;4.37;;;4.07;;
7517;SDS011;3800;48.922;9.444;2022-07-23T03:36:25;4.57;;;3.83;;
7517;SDS011;3800;48.922;9.444;2022-07-23T03:38:53;6.30;;;4.13;;
7517;SDS011;3800;48.922;9.444;2022-07-23T03:41:21;4.33;;;3.93;;
7517;SDS011;3800;48.922;9.444;2022-07-23T03:43:50;4.53;;;3.90;;
7517;SDS011;3800;48.922;9.444;2022-07-23T03:46:18;4.70;;;4.30;;
7517;SDS011;3800;48.922;9.444;2022-07-23T03:48:46;5.50;;;3.80;;
7517;SDS011;3800;48.922;9.444;2022-07-23T03:51:14;5.10;;;4.60;;
7517;SDS011;3800;48.922;9.444;2022-07-23T03:53:43;4.80;;;4.30;;
7517;SDS011;3800;48.922;9.444;2022-07-23T03:56:12;5.03;;;4.53;;
7517;SDS011;3800;48.922;9.444;2022-07-23T03:58:41;5.87;;;4.00;;
7517;SDS011;3800;48.922;9.444;2022-07-23T04:01:09;4.90;;;4.40;;
7517;SDS011;3800;48.922;9.444;2022-07-23T04:03:37;4.60;;;4.20;;
7517;SDS011;3800;48.922;9.444;2022-07-23T04:06:06;5.53;;;4.00;;
7517;SDS011;3800;48.922;9.444;2022-07-23T04:08:34;4.30;;;3.90;;
7517;SDS011;3800;48.922;9.444;2022-07-23T04:11:02;6.37;;;4.37;;
7517;SDS011;3800;48.922;9.444;2022-07-23T04:13:30;4.60;;;4.20;;
7517;SDS011;3800;48.922;9.444;2022-07-23T04:15:59;5.03;;;4.53;;
7517;SDS011;3800;48.922;9.444;2022-07-23T04:18:27;4.37;;;4.00;;
7517;SDS011;3800;48.922;9.444;2022-07-23T04:20:56;4.77;;;4.37;;
7517;SDS011;3800;48.922;9.444;2022-07-23T04:23:24;5.00;;;4.50;;
7517;SDS011;3800;48.922;9.444;2022-07-23T04:25:53;4.50;;;4.10;;
7517;SDS011;3800;48.922;9.444;2022-07-23T04:28:21;4.93;;;4.53;;
7517;SDS011;3800;48.922;9.444;2022-07-23T04:30:50;4.97;;;4.40;;
7517;SDS011;3800;48.922;9.444;2022-07-23T04:33:19;4.47;;;4.07;;
7517;SDS011;3800;48.922;9.444;2022-07-23T04:35:48;4.90;;;4.40;;
7517;SDS011;3800;48.922;9.444;2022-07-23T04:38:16;4.77;;;4.37;;
7517;SDS011;3800;48.922;9.444;2022-07-23T04:40:45;4.43;;;4.03;;
7517;SDS011;3800;48.922;9.444;2022-07-23T04:43:14;5.37;;;4.33;;
7517;SDS011;3800;48.922;9.444;2022-07-23T04:45:43;4.50;;;4.10;;
7517;SDS011;3800;48.922;9.444;2022-07-23T04:48:11;5.40;;;4.80;;
7517;SDS011;3800;48.922;9.444;2022-07-23T04:50:40;4.70;;;4.30;;
7517;SDS011;3800;48.922;9.444;2022-07-23T04:53:08;6.13;;;5.50;;
7517;SDS011;3800;48.922;9.444;2022-07-23T04:55:36;5.73;;;5.23;;
7517;SDS011;3800;48.922;9.444;2022-07-23T04:58:04;5.07;;;4.67;;
7517;SDS011;3800;48.922;9.444;2022-07-23T05:00:33;4.53;;;4.13;;
7517;SDS011;3800;48.922;9.444;2022-07-23T05:03:02;5.13;;;4.70;;
7517;SDS011;3800;48.922;9.444;2022-07-23T05:05:30;4.93;;;4.40;;
7517;SDS011;3800;48.922;9.444;2022-07-23T05:07:58;5.40;;;4.50;;
7517;SDS011;3800;48.922;9.444;2022-07-23T05:10:27;5.27;;;4.50;;
7517;SDS011;3800;48.922;9.444;2022-07-23T05:12:56;5.67;;;4.77;;
7517;SDS011;3800;48.922;9.444;2022-07-23T05:15:25;5.23;;;4.70;;
7517;SDS011;3800;48.922;9.444;2022-07-23T05:17:53;8.17;;;5.27;;
7517;SDS011;3800;48.922;9.444;2022-07-23T05:20:21;4.70;;;4.30;;
7517;SDS011;3800;48.922;9.444;2022-07-23T05:22:49;5.20;;;4.80;;
7517;SDS011;3800;48.922;9.444;2022-07-23T05:25:18;5.40;;;4.90;;
7517;SDS011;3800;48.922;9.444;2022-07-23T05:27:46;5.23;;;4.50;;
7517;SDS011;3800;48.922;9.444;2022-07-23T05:30:14;5.30;;;4.80;;
7517;SDS011;3800;48.922;9.444;2022-07-23T05:32:43;6.40;;;4.43;;
7517;SDS011;3800;48.922;9.444;2022-07-23T05:35:11;5.43;;;4.50;;
7517;SDS011;3800;48.922;9.444;2022-07-23T05:37:40;5.30;;;4.80;;
7517;SDS011;3800;48.922;9.444;2022-07-23T05:40:09;6.93;;;4.93;;
7517;SDS011;3800;48.922;9.444;2022-07-23T05:42:38;6.30;;;4.97;;
7517;SDS011;3800;48.922;9.444;2022-07-23T05:45:06;4.97;;;4.47;;
7517;SDS011;3800;48.922;9.444;2022-07-23T05:47:39;4.90;;;4.50;;
7517;SDS011;3800;48.922;9.444;2022-07-23T05:50:09;5.80;;;5.30;;
7517;SDS011;3800;48.922;9.444;2022-07-23T05:52:38;5.53;;;5.00;;
7517;SDS011;3800;48.922;9.444;2022-07-23T05:55:06;6.23;;;5.40;;
7517;SDS011;3800;48.922;9.444;2022-07-23T05:57:35;6.37;;;5.17;;
7517;SDS011;3800;48.922;9.444;2022-07-23T06:00:03;5.20;;;4.70;;
7517;SDS011;3800;48.922;9.444;2022-07-23T06:02:32;4.90;;;4.50;;
7517;SDS011;3800;48.922;9.444;2022-07-23T06:05:01;5.00;;;4.60;;
7517;SDS011;3800;48.922;9.444;2022-07-23T06:07:29;5.23;;;4.73;;
7517;SDS011;3800;48.922;9.444;2022-07-23T06:09:57;4.97;;;4.53;;
7517;SDS011;3800;48.922;9.444;2022-07-23T06:12:25;5.37;;;4.60;;
7517;SDS011;3800;48.922;9.444;2022-07-23T06:14:54;5.13;;;4.73;;
7517;SDS011;3800;48.922;9.444;2022-07-23T06:17:22;5.23;;;4.83;;
7517;SDS011;3800;48.922;9.444;2022-07-23T06:19:50;5.27;;;4.83;;
7517;SDS011;3800;48.922;9.444;2022-07-23T06:22:18;5.40;;;4.90;;
7517;SDS011;3800;48.922;9.444;2022-07-23T06:24:48;5.93;;;4.73;;
7517;SDS011;3800;48.922;9.444;2022-07-23T06:27:16;6.37;;;5.13;;
7517;SDS011;3800;48.922;9.444;2022-07-23T06:29:44;5.50;;;5.00;;
7517;SDS011;3800;48.922;9.444;2022-07-23T06:32:12;5.73;;;5.00;;
7517;SDS011;3800;48.922;9.444;2022-07-23T06:34:40;5.27;;;4.77;;
7517;SDS011;3800;48.922;9.444;2022-07-23T06:37:09;5.97;;;4.70;;
7517;SDS011;3800;48.922;9.444;2022-07-23T06:39:37;5.70;;;5.20;;
7517;SDS011;3800;48.922;9.444;2022-07-23T06:42:05;5.73;;;5.13;;
7517;SDS011;3800;48.922;9.444;2022-07-23T06:44:33;5.80;;;5.30;;
7517;SDS011;3800;48.922;9.444;2022-07-23T06:47:02;5.40;;;4.90;;
7517;SDS011;3800;48.922;9.444;2022-07-23T06:49:30;6.10;;;5.60;;
7517;SDS011;3800;48.922;9.444;2022-07-23T06:51:59;6.53;;;5.83;;
7517;SDS011;3800;48.922;9.444;2022-07-23T06:54:27;7.00;;;5.40;;
7517;SDS011;3800;48.922;9.444;2022-07-23T06:56:56;7.57;;;6.27;;
7517;SDS011;3800;48.922;9.444;2022-07-23T06:59:24;7.00;;;6.03;;
7517;SDS011;3800;48.922;9.444;2022-07-23T07:01:52;6.90;;;6.00;;
7517;SDS011;3800;48.922;9.444;2022-07-23T07:04:20;7.67;;;6.80;;
7517;SDS011;3800;48.922;9.444;2022-07-23T07:06:49;7.60;;;6.80;;
7517;SDS011;3800;48.922;9.444;2022-07-23T07:09:17;7.57;;;6.87;;
7517;SDS011;3800;48.922;9.444;2022-07-23T07:11:45;7.50;;;6.73;;
7517;SDS011;3800;48.922;9.444;2022-07-23T07:14:13;8.53;;;7.47;;
7517;SDS011;3800;48.922;9.444;2022-07-23T07:16:42;7.60;;;6.90;;
7517;SDS011;3800;48.922;9.444;2022-07-23T07:19:11;8.23;;;7.30;;
7517;SDS011;3800;48.922;9.444;2022-07-23T07:21:39;7.37;;;6.73;;
7517;SDS011;3800;48.922;9.444;2022-07-23T07:24:07;9.60;;;7.57;;
7517;SDS011;3800;48.922;9.444;2022-07-23T07:26:35;8.23;;;6.70;;
7517;SDS011;3800;48.922;9.444;2022-07-23T07:29:04;9.10;;;7.47;;
7517;SDS011;3800;48.922;9.444;2022-07-23T07:31:32;8.03;;;7.30;;
7517;SDS011;3800;48.922;9.444;2022-07-23T07:34:00;8.00;;;7.20;;
7517;SDS011;3800;48.922;9.444;2022-07-23T07:36:29;9.67;;;7.00;;
7517;SDS011;3800;48.922;9.444;2022-07-23T07:38:57;8.43;;;7.47;;
7517;SDS011;3800;48.922;9.444;2022-07-23T07:41:26;8.17;;;7.43;;
7517;SDS011;3800;48.922;9.444;2022-07-23T07:43:54;9.60;;;7.93;;
7517;SDS011;3800;48.922;9.444;2022-07-23T07:46:22;9.23;;;7.77;;
7517;SDS011;3800;48.922;9.444;2022-07-23T07:48:50;12.93;;;11.60;;
7517;SDS011;3800;48.922;9.444;2022-07-23T07:51:19;8.07;;;7.37;;
7517;SDS011;3800;48.922;9.444;2022-07-23T07:53:47;7.93;;;7.20;;
7517;SDS011;3800;48.922;9.444;2022-07-23T07:56:15;7.47;;;6.77;;
7517;SDS011;3800;48.922;9.444;2022-07-23T07:58:43;7.90;;;7.10;;
7517;SDS011;3800;48.922;9.444;2022-07-23T08:01:12;12.23;;;7.63;;
7517;SDS011;3800;48.922;9.444;2022-07-23T08:03:40;8.57;;;7.77;;
7517;SDS011;3800;48.922;9.444;2022-07-23T08:06:09;8.00;;;7.30;;
7517;SDS011;3800;48.922;9.444;2022-07-23T08:08:37;7.80;;;7.10;;
7517;SDS011;3800;48.922;9.444;2022-07-23T08:11:06;8.07;;;7.27;;
7517;SDS011;3800;48.922;9.444;2022-07-23T08:13:34;8.97;;;8.10;;
7517;SDS011;3800;48.922;9.444;2022-07-23T08:16:02;17.53;;;8.80;;
7517;SDS011;3800;48.922;9.444;2022-07-23T08:18:31;8.43;;;7.63;;
7517;SDS011;3800;48.922;9.444;2022-07-23T08:21:00;8.17;;;7.33;;
7517;SDS011;3800;48.922;9.444;2022-07-23T08:23:28;8.10;;;7.30;;
7517;SDS011;3800;48.922;9.444;2022-07-23T08:25:56;9.27;;;7.17;;
7517;SDS011;3800;48.922;9.444;2022-07-23T08:28:25;7.57;;;6.80;;
7517;SDS011;3800;48.922;9.444;2022-07-23T08:30:53;7.67;;;6.87;;
7517;SDS011;3800;48.922;9.444;2022-07-23T08:33:22;8.40;;;6.90;;
7517;SDS011;3800;48.922;9.444;2022-07-23T08:35:50;7.00;;;6.40;;
7517;SDS011;3800;48.922;9.444;2022-07-23T08:38:19;7.73;;;7.03;;
7517;SDS011;3800;48.922;9.444;2022-07-23T08:40:48;7.57;;;6.87;;
7517;SDS011;3800;48.922;9.444;2022-07-23T08:43:17;7.83;;;7.03;;
7517;SDS011;3800;48.922;9.444;2022-07-23T08:45:47;7.80;;;7.00;;
7517;SDS011;3800;48.922;9.444;2022-07-23T08:48:15;7.33;;;6.63;;
7517;SDS011;3800;48.922;9.444;2022-07-23T08:50:49;7.10;;;6.50;;
7517;SDS011;3800;48.922;9.444;2022-07-23T08:53:18;7.40;;;6.70;;
7517;SDS011;3800;48.922;9.444;2022-07-23T08:55:47;7.00;;;6.30;;
7517;SDS011;3800;48.922;9.444;2022-07-23T08:58:15;7.13;;;6.43;;
7517;SDS011;3800;48.922;9.444;2022-07-23T09:00:43;7.03;;;6.33;;
7517;SDS011;3800;48.922;9.444;2022-07-23T09:03:17;6.57;;;6.00;;
7517;SDS011;3800;48.922;9.444;2022-07-23T09:05:46;7.63;;;6.50;;
7517;SDS011;3800;48.922;9.444;2022-07-23T09:08:15;6.63;;;5.97;;
7517;SDS011;3800;48.922;9.444;2022-07-23T09:10:58;6.87;;;6.13;;
7517;SDS011;3800;48.922;9.444;2022-07-23T09:13:28;5.70;;;5.13;;
7517;SDS011;3800;48.922;9.444;2022-07-23T09:16:06;6.20;;;5.40;;
7517;SDS011;3800;48.922;9.444;2022-07-23T09:18:39;6.00;;;5.43;;
7517;SDS011;3800;48.922;9.444;2022-07-23T09:21:20;6.20;;;5.60;;
7517;SDS011;3800;48.922;9.444;2022-07-23T09:23:50;6.50;;;5.27;;
7517;SDS011;3800;48.922;9.444;2022-07-23T09:26:29;6.03;;;5.43;;
7517;SDS011;3800;48.922;9.444;2022-07-23T09:29:01;6.13;;;5.27;;
7517;SDS011;3800;48.922;9.444;2022-07-23T09:31:33;5.90;;;5.30;;
7517;SDS011;3800;48.922;9.444;2022-07-23T09:34:10;5.40;;;4.90;;
7517;SDS011;3800;48.922;9.444;2022-07-23T09:36:57;6.00;;;5.50;;
7517;SDS011;3800;48.922;9.444;2022-07-23T09:39:29;5.50;;;5.00;;
7517;SDS011;3800;48.922;9.444;2022-07-23T09:41:59;5.10;;;4.70;;
7517;SDS011;3800;48.922;9.444;2022-07-23T09:44:32;5.00;;;4.50;;
7517;SDS011;3800;48.922;9.444;2022-07-23T09:47:01;6.20;;;4.83;;
7517;SDS011;3800;48.922;9.444;2022-07-23T09:49:29;5.10;;;4.60;;
7517;SDS011;3800;48.922;9.444;2022-07-23T09:51:58;6.33;;;4.80;;
7517;SDS011;3800;48.922;9.444;2022-07-23T09:54:26;5.60;;;5.10;;
7517;SDS011;3800;48.922;9.444;2022-07-23T09:57:05;5.07;;;4.57;;
7517;SDS011;3800;48.922;9.444;2022-07-23T09:59:34;5.17;;;4.67;;
7517;SDS011;3800;48.922;9.444;2022-07-23T10:02:02;5.07;;;4.57;;
7517;SDS011;3800;48.922;9.444;2022-07-23T10:04:30;5.13;;;4.63;;
7517;SDS011;3800;48.922;9.444;2022-07-23T10:06:59;5.43;;;4.97;;
7517;SDS011;3800;48.922;9.444;2022-07-23T10:09:28;5.80;;;5.30;;
7517;SDS011;3800;48.922;9.444;2022-07-23T10:11:56;5.90;;;5.30;;
7517;SDS011;3800;48.922;9.444;2022-07-23T10:14:24;5.30;;;4.80;;
7517;SDS011;3800;48.922;9.444;2022-07-23T10:16:52;5.43;;;4.93;;
7517;SDS011;3800;48.922;9.444;2022-07-23T10:19:20;5.77;;;4.83;;
7517;SDS011;3800;48.922;9.444;2022-07-23T10:21:50;5.80;;;4.90;;
7517;SDS011;3800;48.922;9.444;2022-07-23T10:24:23;5.40;;;4.70;;
7517;SDS011;3800;48.922;9.444;2022-07-23T10:27:02;5.70;;;5.20;;
7517;SDS011;3800;48.922;9.444;2022-07-23T10:29:42;6.37;;;5.30;;
7517;SDS011;3800;48.922;9.444;2022-07-23T10:32:21;6.53;;;5.23;;
7517;SDS011;3800;48.922;9.444;2022-07-23T10:35:10;6.13;;;4.73;;
7517;SDS011;3800;48.922;9.444;2022-07-23T10:37:51;4.90;;;4.50;;
7517;SDS011;3800;48.922;9.444;2022-07-23T10:40:20;5.30;;;4.90;;
7517;SDS011;3800;48.922;9.444;2022-07-23T10:42:48;5.23;;;4.80;;
7517;SDS011;3800;48.922;9.444;2022-07-23T10:45:34;5.43;;;4.90;;
7517;SDS011;3800;48.922;9.444;2022-07-23T10:48:14;5.60;;;4.90;;
7517;SDS011;3800;48.922;9.444;2022-07-23T10:50:44;5.77;;;5.03;;
7517;SDS011;3800;48.922;9.444;2022-07-23T10:53:13;5.57;;;5.07;;
7517;SDS011;3800;48.922;9.444;2022-07-23T10:55:41;5.53;;;5.00;;
7517;SDS011;3800;48.922;9.444;2022-07-23T10:58:09;5.07;;;4.57;;
7517;SDS011;3800;48.922;9.444;2022-07-23T11:00:37;5.47;;;4.97;;
7517;SDS011;3800;48.922;9.444;2022-07-23T11:03:29;4.97;;;4.47;;
7517;SDS011;3800;48.922;9.444;2022-07-23T11:05:40;5.83;;;4.77;;
7517;SDS011;3800;48.922;9.444;2022-07-23T11:08:10;6.87;;;4.80;;
7517;SDS011;3800;48.922;9.444;2022-07-23T11:10:40;5.23;;;4.73;;
7517;SDS011;3800;48.922;9.444;2022-07-23T11:16:11;4.70;;;4.27;;
7517;SDS011;3800;48.922;9.444;2022-07-23T11:18:55;5.23;;;4.73;;
7517;SDS011;3800;48.922;9.444;2022-07-23T11:24:10;5.10;;;4.60;;
7517;SDS011;3800;48.922;9.444;2022-07-23T11:26:45;5.00;;;4.53;;
7517;SDS011;3800;48.922;9.444;2022-07-23T11:29:48;4.93;;;4.43;;
7517;SDS011;3800;48.922;9.444;2022-07-23T11:32:07;4.57;;;4.17;;
7517;SDS011;3800;48.922;9.444;2022-07-23T11:34:51;5.50;;;4.67;;
7517;SDS011;3800;48.922;9.444;2022-07-23T11:39:54;7.17;;;4.47;;
7517;SDS011;3800;48.922;9.444;2022-07-23T11:42:22;4.63;;;4.20;;
7517;SDS011;3800;48.922;9.444;2022-07-23T11:44:51;4.70;;;4.30;;
7517;SDS011;3800;48.922;9.444;2022-07-23T11:47:22;5.23;;;4.73;;
7517;SDS011;3800;48.922;9.444;2022-07-23T11:49:53;4.80;;;4.20;;
7517;SDS011;3800;48.922;9.444;2022-07-23T11:52:22;5.73;;;4.83;;
7517;SDS011;3800;48.922;9.444;2022-07-23T11:54:52;4.90;;;4.43;;
7517;SDS011;3800;48.922;9.444;2022-07-23T11:57:20;4.67;;;4.27;;
7517;SDS011;3800;48.922;9.444;2022-07-23T11:59:50;5.03;;;4.50;;
7517;SDS011;3800;48.922;9.444;2022-07-23T12:02:16;5.30;;;4.00;;
7517;SDS011;3800;48.922;9.444;2022-07-23T12:04:46;5.47;;;4.77;;
7517;SDS011;3800;48.922;9.444;2022-07-23T12:09:56;5.00;;;4.60;;
7517;SDS011;3800;48.922;9.444;2022-07-23T12:12:24;4.90;;;4.50;;
7517;SDS011;3800;48.922;9.444;2022-07-23T12:14:53;5.37;;;4.87;;
7517;SDS011;3800;48.922;9.444;2022-07-23T12:17:21;5.67;;;4.53;;
7517;SDS011;3800;48.922;9.444;2022-07-23T12:19:49;5.13;;;4.73;;
7517;SDS011;3800;48.922;9.444;2022-07-23T12:22:17;5.40;;;4.90;;
7517;SDS011;3800;48.922;9.444;2022-07-23T12:24:52;5.40;;;4.90;;
7517;SDS011;3800;48.922;9.444;2022-07-23T12:27:23;5.37;;;4.87;;
7517;SDS011;3800;48.922;9.444;2022-07-23T12:29:52;6.10;;;5.17;;
7517;SDS011;3800;48.922;9.444;2022-07-23T12:32:23;5.80;;;5.30;;
7517;SDS011;3800;48.922;9.444;2022-07-23T12:37:34;5.27;;;4.77;;
7517;SDS011;3800;48.922;9.444;2022-07-23T12:40:35;6.07;;;4.57;;
7517;SDS011;3800;48.922;9.444;2022-07-23T12:42:47;5.97;;;4.70;;
7517;SDS011;3800;48.922;9.444;2022-07-23T12:45:15;5.10;;;4.70;;
7517;SDS011;3800;48.922;9.444;2022-07-23T12:53:06;5.13;;;4.73;;
7517;SDS011;3800;48.922;9.444;2022-07-23T12:55:35;5.27;;;4.77;;
7517;SDS011;3800;48.922;9.444;2022-07-23T12:58:04;5.27;;;4.77;;
7517;SDS011;3800;48.922;9.444;2022-07-23T13:03:25;5.40;;;4.90;;
7517;SDS011;3800;48.922;9.444;2022-07-23T13:05:52;5.43;;;4.90;;
7517;SDS011;3800;48.922;9.444;2022-07-23T13:08:20;5.30;;;4.80;;
7517;SDS011;3800;48.922;9.444;2022-07-23T13:10:50;5.57;;;4.93;;
7517;SDS011;3800;48.922;9.444;2022-07-23T13:13:20;5.90;;;5.20;;
7517;SDS011;3800;48.922;9.444;2022-07-23T13:15:48;6.80;;;5.00;;
7517;SDS011;3800;48.922;9.444;2022-07-23T13:18:16;5.70;;;5.10;;
7517;SDS011;3800;48.922;9.444;2022-07-23T13:20:45;6.27;;;5.13;;
7517;SDS011;3800;48.922;9.444;2022-07-23T13:23:13;5.77;;;5.00;;
7517;SDS011;3800;48.922;9.444;2022-07-23T13:25:42;5.23;;;4.73;;
7517;SDS011;3800;48.922;9.444;2022-07-23T13:28:10;8.53;;;5.30;;
7517;SDS011;3800;48.922;9.444;2022-07-23T13:30:39;6.17;;;5.37;;
7517;SDS011;3800;48.922;9.444;2022-07-23T13:33:07;5.77;;;5.23;;
7517;SDS011;3800;48.922;9.444;2022-07-23T13:35:35;6.30;;;5.70;;
7517;SDS011;3800;48.922;9.444;2022-07-23T13:38:04;5.80;;;5.17;;
7517;SDS011;3800;48.922;9.444;2022-07-23T13:40:31;5.77;;;5.27;;
7517;SDS011;3800;48.922;9.444;2022-07-23T13:43:00;6.27;;;4.90;;
7517;SDS011;3800;48.922;9.444;2022-07-23T13:45:28;5.77;;;5.20;;
7517;SDS011;3800;48.922;9.444;2022-07-23T13:47:56;6.60;;;5.90;;
7517;SDS011;3800;48.922;9.444;2022-07-23T13:50:24;6.67;;;5.97;;
7517;SDS011;3800;48.922;9.444;2022-07-23T13:52:53;6.20;;;5.60;;
7517;SDS011;3800;48.922;9.444;2022-07-23T13:55:21;5.90;;;5.27;;
7517;SDS011;3800;48.922;9.444;2022-07-23T13:57:49;6.67;;;5.73;;
7517;SDS011;3800;48.922;9.444;2022-07-23T14:00:17;6.27;;;5.67;;
7517;SDS011;3800;48.922;9.444;2022-07-23T14:02:46;6.17;;;5.63;;
7517;SDS011;3800;48.922;9.444;2022-07-23T14:05:14;6.70;;;5.60;;
7517;SDS011;3800;48.922;9.444;2022-07-23T14:07:42;6.53;;;5.93;;
7517;SDS011;3800;48.922;9.444;2022-07-23T14:10:10;6.83;;;6.10;;
7517;SDS011;3800;48.922;9.444;2022-07-23T14:12:39;6.40;;;5.80;;
7517;SDS011;3800;48.922;9.444;2022-07-23T14:15:08;6.23;;;5.70;;
7517;SDS011;3800;48.922;9.444;2022-07-23T14:17:37;6.53;;;5.87;;
7517;SDS011;3800;48.922;9.444;2022-07-23T14:20:05;6.27;;;5.70;;
7517;SDS011;3800;48.922;9.444;2022-07-23T14:22:33;6.40;;;5.80;;
7517;SDS011;3800;48.922;9.444;2022-07-23T14:25:02;7.10;;;6.13;;
7517;SDS011;3800;48.922;9.444;2022-07-23T14:27:30;6.37;;;5.80;;
7517;SDS011;3800;48.922;9.444;2022-07-23T14:29:59;6.50;;;5.97;;
7517;SDS011;3800;48.922;9.444;2022-07-23T14:32:27;6.20;;;5.67;;
7517;SDS011;3800;48.922;9.444;2022-07-23T14:34:55;7.47;;;5.83;;
7517;SDS011;3800;48.922;9.444;2022-07-23T14:37:24;6.47;;;5.50;;
7517;SDS011;3800;48.922;9.444;2022-07-23T14:39:52;6.33;;;5.80;;
7517;SDS011;3800;48.922;9.444;2022-07-23T14:42:21;5.93;;;5.40;;
7517;SDS011;3800;48.922;9.444;2022-07-23T14:44:50;6.87;;;5.70;;
7517;SDS011;3800;48.922;9.444;2022-07-23T14:47:19;7.10;;;5.53;;
7517;SDS011;3800;48.922;9.444;2022-07-23T14:49:47;5.77;;;5.27;;
7517;SDS011;3800;48.922;9.444;2022-07-23T14:52:16;6.93;;;5.37;;
7517;SDS011;3800;48.922;9.444;2022-07-23T14:54:44;7.13;;;5.33;;
7517;SDS011;3800;48.922;9.444;2022-07-23T14:57:12;5.70;;;5.20;;
7517;SDS011;3800;48.922;9.444;2022-07-23T14:59:41;9.10;;;5.50;;
7517;SDS011;3800;48.922;9.444;2022-07-23T15:02:09;6.07;;;5.40;;
7517;SDS011;3800;48.922;9.444;2022-07-23T15:04:37;6.57;;;5.80;;
7517;SDS011;3800;48.922;9.444;2022-07-23T15:07:05;6.83;;;5.80;;
7517;SDS011;3800;48.922;9.444;2022-07-23T15:09:35;6.37;;;5.70;;
7517;SDS011;3800;48.922;9.444;2022-07-23T15:12:03;7.37;;;5.60;;
7517;SDS011;3800;48.922;9.444;2022-07-23T15:14:32;5.93;;;5.33;;
7517;SDS011;3800;48.922;9.444;2022-07-23T15:17:00;6.47;;;5.47;;
7517;SDS011;3800;48.922;9.444;2022-07-23T15:19:28;6.47;;;5.97;;
7517;SDS011;3800;48.922;9.444;2022-07-23T15:21:57;6.90;;;5.90;;
7517;SDS011;3800;48.922;9.444;2022-07-23T15:24:25;7.83;;;5.60;;
7517;SDS011;3800;48.922;9.444;2022-07-23T15:26:54;7.37;;;5.70;;
7517;SDS011;3800;48.922;9.444;2022-07-23T15:29:22;6.50;;;5.90;;
7517;SDS011;3800;48.922;9.444;2022-07-23T15:31:50;6.20;;;5.60;;
7517;SDS011;3800;48.922;9.444;2022-07-23T15:34:18;6.80;;;6.20;;
7517;SDS011;3800;48.922;9.444;2022-07-23T15:36:47;6.43;;;5.80;;
7517;SDS011;3800;48.922;9.444;2022-07-23T15:39:15;6.50;;;5.77;;
7517;SDS011;3800;48.922;9.444;2022-07-23T15:41:43;6.50;;;6.00;;
7517;SDS011;3800;48.922;9.444;2022-07-23T15:44:11;6.63;;;6.03;;
7517;SDS011;3800;48.922;9.444;2022-07-23T15:46:40;6.50;;;5.90;;
7517;SDS011;3800;48.922;9.444;2022-07-23T15:49:08;6.40;;;5.77;;